createdAt,value
2019-03-18T00:00:25.029Z,21.3
2019-03-18T00:01:15.069Z,21.3
2019-03-18T00:02:05.170Z,21.3
2019-03-18T00:02:55.259Z,21.3
2019-03-18T00:03:45.252Z,21.3
2019-03-18T00:04:35.304Z,21.3
2019-03-18T00:05:25.369Z,21.3
2019-03-18T00:06:15.424Z,21.3
2019-03-18T00:07:05.489Z,21.3
2019-03-18T00:07:55.284Z,21.3
2019-03-18T00:08:45.614Z,21.3
2019-03-18T00:09:35.675Z,21.3
2019-03-18T00:10:25.188Z,21.3
2019-03-18T00:11:15.789Z,21.3
2019-03-18T00:12:05.584Z,21.3
2019-03-18T00:12:55.916Z,21.3
2019-03-18T00:13:45.985Z,21.3
2019-03-18T00:14:36.036Z,21.3
2019-03-18T00:15:26.103Z,21.3
2019-03-18T00:16:15.890Z,21.3
2019-03-18T00:17:06.219Z,21.3
2019-03-18T00:17:56.305Z,21.3
2019-03-18T00:18:46.331Z,21.3
2019-03-18T00:19:36.120Z,21.3
2019-03-18T00:20:26.453Z,21.3
2019-03-18T00:21:16.526Z,21.3
2019-03-18T00:22:06.303Z,21.3
2019-03-18T00:22:56.644Z,21.3
2019-03-18T00:23:46.693Z,21.3
2019-03-18T00:24:36.486Z,21.3
2019-03-18T00:25:26.818Z,21.3
2019-03-18T00:26:16.605Z,21.3
2019-03-18T00:27:06.654Z,21.3
2019-03-18T00:27:56.993Z,21.3
2019-03-18T00:28:47.056Z,21.3
2019-03-18T00:29:37.116Z,21.3
2019-03-18T00:30:27.183Z,21.3
2019-03-18T00:31:16.955Z,21.3
2019-03-18T00:32:07.311Z,21.3
2019-03-18T00:32:57.097Z,21.3
2019-03-18T00:33:47.151Z,21.3
2019-03-18T00:34:37.475Z,21.3
2019-03-18T00:35:27.535Z,21.3
2019-03-18T00:36:17.600Z,21.3
2019-03-18T00:37:07.470Z,21.3
2019-03-18T00:37:57.725Z,21.3
2019-03-18T00:38:47.780Z,21.3
2019-03-18T00:39:37.847Z,21.3
2019-03-18T00:40:27.912Z,21.3
2019-03-18T00:41:17.969Z,21.3
2019-03-18T00:42:08.025Z,21.3
2019-03-18T00:42:57.806Z,21.3
2019-03-18T00:43:48.160Z,21.3
2019-03-18T00:44:38.212Z,21.3
2019-03-18T00:45:28.264Z,21.3
2019-03-18T00:46:18.053Z,21.3
2019-03-18T00:47:08.154Z,21.3
2019-03-18T00:47:58.215Z,21.3
2019-03-18T00:48:48.506Z,21.3
2019-03-18T00:49:38.566Z,21.3
2019-03-18T00:50:28.625Z,21.3
2019-03-18T00:51:18.682Z,21.3
2019-03-18T00:52:08.742Z,21.3
2019-03-18T00:52:58.804Z,21.3
2019-03-18T00:53:48.873Z,21.3
2019-03-18T00:54:38.916Z,21.4
2019-03-18T00:55:28.714Z,21.3
2019-03-18T00:56:19.066Z,21.3
2019-03-18T00:57:09.107Z,21.3
2019-03-18T00:57:58.894Z,21.3
2019-03-18T00:58:49.234Z,21.3
2019-03-18T00:59:39.010Z,21.3
2019-03-18T01:00:29.136Z,21.3
2019-03-18T01:01:19.403Z,21.3
2019-03-18T01:02:09.474Z,21.3
2019-03-18T01:02:59.533Z,21.4
2019-03-18T01:03:49.593Z,21.3
2019-03-18T01:04:39.648Z,21.3
2019-03-18T01:05:29.713Z,21.3
2019-03-18T01:06:19.489Z,21.3
2019-03-18T01:07:09.553Z,21.4
2019-03-18T01:07:59.889Z,21.3
2019-03-18T01:08:49.682Z,21.4
2019-03-18T01:09:40.010Z,21.4
2019-03-18T01:10:30.077Z,21.3
2019-03-18T01:11:20.128Z,21.3
2019-03-18T01:12:10.190Z,21.4
2019-03-18T01:13:00.246Z,21.4
2019-03-18T01:13:50.310Z,21.4
2019-03-18T01:14:40.369Z,21.4
2019-03-18T01:15:30.435Z,21.4
2019-03-18T01:16:20.485Z,21.4
2019-03-18T01:17:10.550Z,21.4
2019-03-18T01:18:00.331Z,21.4
2019-03-18T01:18:50.401Z,21.4
2019-03-18T01:19:40.730Z,21.4
2019-03-18T01:20:30.533Z,21.4
2019-03-18T01:21:20.862Z,21.4
2019-03-18T01:22:10.640Z,21.4
2019-03-18T01:23:00.428Z,21.4
2019-03-18T01:23:51.125Z,21.4
2019-03-18T01:24:40.818Z,21.4
2019-03-18T01:25:31.159Z,21.4
2019-03-18T01:26:21.218Z,21.4
2019-03-18T01:27:11.002Z,21.4
2019-03-18T01:28:01.340Z,21.4
2019-03-18T01:28:51.119Z,21.4
2019-03-18T01:29:41.459Z,21.4
2019-03-18T01:30:31.517Z,21.4
2019-03-18T01:31:21.607Z,21.4
2019-03-18T01:32:11.641Z,21.4
2019-03-18T01:33:01.434Z,21.4
2019-03-18T01:33:51.759Z,21.4
2019-03-18T01:34:41.813Z,21.4
2019-03-18T01:35:31.927Z,21.4
2019-03-18T01:36:21.667Z,21.4
2019-03-18T01:37:11.996Z,21.4
2019-03-18T01:38:02.054Z,21.4
2019-03-18T01:38:52.123Z,21.4
2019-03-18T01:39:42.172Z,21.4
2019-03-18T01:40:32.236Z,21.4
2019-03-18T01:41:22.038Z,21.4
2019-03-18T01:42:12.111Z,21.4
2019-03-18T01:43:02.419Z,21.4
2019-03-18T01:43:52.208Z,21.4
2019-03-18T01:44:42.531Z,21.4
2019-03-18T01:45:41.891Z,21.4
2019-03-18T01:46:22.385Z,21.4
2019-03-18T01:47:12.451Z,21.4
2019-03-18T01:48:02.511Z,21.4
2019-03-18T01:48:52.836Z,21.4
2019-03-18T01:49:42.903Z,21.4
2019-03-18T01:50:32.960Z,21.4
2019-03-18T01:51:22.751Z,21.4
2019-03-18T01:52:12.808Z,21.4
2019-03-18T01:53:02.873Z,21.4
2019-03-18T01:53:53.205Z,21.4
2019-03-18T01:54:43.270Z,21.4
2019-03-18T01:55:33.052Z,21.4
2019-03-18T01:56:23.385Z,21.4
2019-03-18T01:57:13.455Z,21.4
2019-03-18T01:58:03.230Z,21.4
2019-03-18T01:58:53.288Z,21.4
2019-03-18T01:59:43.618Z,21.4
2019-03-18T02:00:33.687Z,21.4
2019-03-18T02:01:23.747Z,21.4
2019-03-18T02:02:13.807Z,21.4
2019-03-18T02:03:03.875Z,21.4
2019-03-18T02:03:53.655Z,21.4
2019-03-18T02:04:43.986Z,21.4
2019-03-18T02:05:33.782Z,21.4
2019-03-18T02:06:24.112Z,21.4
2019-03-18T02:07:14.175Z,21.4
2019-03-18T02:08:03.947Z,21.4
2019-03-18T02:08:54.288Z,21.4
2019-03-18T02:09:44.343Z,21.4
2019-03-18T02:10:34.407Z,21.4
2019-03-18T02:11:24.179Z,21.4
2019-03-18T02:12:14.254Z,21.4
2019-03-18T02:13:04.590Z,21.4
2019-03-18T02:13:54.370Z,21.4
2019-03-18T02:14:44.447Z,21.4
2019-03-18T02:15:34.221Z,21.4
2019-03-18T02:16:24.824Z,21.4
2019-03-18T02:17:14.935Z,21.4
2019-03-18T02:18:04.679Z,21.4
2019-03-18T02:18:55.014Z,21.4
2019-03-18T02:19:45.071Z,21.4
2019-03-18T02:20:35.135Z,21.4
2019-03-18T02:21:24.911Z,21.4
2019-03-18T02:22:15.251Z,21.4
2019-03-18T02:23:05.031Z,21.4
2019-03-18T02:23:55.372Z,21.4
2019-03-18T02:24:45.427Z,21.4
2019-03-18T02:25:35.489Z,21.4
2019-03-18T02:26:25.556Z,21.4
2019-03-18T02:27:15.619Z,21.4
2019-03-18T02:28:05.670Z,21.4
2019-03-18T02:28:55.459Z,21.4
2019-03-18T02:29:45.787Z,21.4
2019-03-18T02:30:35.871Z,21.4
2019-03-18T02:31:25.642Z,21.4
2019-03-18T02:32:15.702Z,21.4
2019-03-18T02:33:06.065Z,21.4
2019-03-18T02:33:55.849Z,21.4
2019-03-18T02:34:46.181Z,21.4
2019-03-18T02:35:36.257Z,21.4
2019-03-18T02:36:26.285Z,21.4
2019-03-18T02:37:16.069Z,21.4
2019-03-18T02:38:06.432Z,21.4
2019-03-18T02:38:56.188Z,21.4
2019-03-18T02:39:46.528Z,21.4
2019-03-18T02:40:36.604Z,21.4
2019-03-18T02:41:26.656Z,21.4
2019-03-18T02:42:16.435Z,21.4
2019-03-18T02:43:06.786Z,21.4
2019-03-18T02:43:56.838Z,21.4
2019-03-18T02:44:46.889Z,21.4
2019-03-18T02:45:36.956Z,21.4
2019-03-18T02:46:26.781Z,21.4
2019-03-18T02:47:17.064Z,21.4
2019-03-18T02:48:07.124Z,21.4
2019-03-18T02:48:56.920Z,21.4
2019-03-18T02:49:46.963Z,21.4
2019-03-18T02:50:37.121Z,21.4
2019-03-18T02:51:27.370Z,21.4
2019-03-18T02:52:17.436Z,21.4
2019-03-18T02:53:07.495Z,21.4
2019-03-18T02:53:57.548Z,21.5
2019-03-18T02:54:47.605Z,21.5
2019-03-18T02:55:37.665Z,21.4
2019-03-18T02:56:27.740Z,21.5
2019-03-18T02:57:17.508Z,21.4
2019-03-18T02:58:07.572Z,21.5
2019-03-18T02:58:57.907Z,21.5
2019-03-18T02:59:47.685Z,21.5
2019-03-18T03:00:38.095Z,21.5
2019-03-18T03:01:28.086Z,21.5
2019-03-18T03:02:18.151Z,21.4
2019-03-18T03:03:08.204Z,21.5
2019-03-18T03:03:58.341Z,21.5
2019-03-18T03:07:28.897Z,21.5
2019-03-18T03:08:19.152Z,21.5
2019-03-18T03:09:09.187Z,21.5
2019-03-18T03:09:59.250Z,21.5
2019-03-18T03:10:49.064Z,21.5
2019-03-18T03:11:39.380Z,21.5
2019-03-18T03:12:29.479Z,21.5
2019-03-18T03:13:19.498Z,21.5
2019-03-18T03:14:09.295Z,21.5
2019-03-18T03:14:59.615Z,21.5
2019-03-18T03:15:49.679Z,21.5
2019-03-18T03:16:39.459Z,21.5
2019-03-18T03:17:29.796Z,21.5
2019-03-18T03:18:19.849Z,21.5
2019-03-18T03:19:09.629Z,21.5
2019-03-18T03:19:59.694Z,21.5
2019-03-18T03:20:50.027Z,21.5
2019-03-18T03:21:40.075Z,21.5
2019-03-18T03:22:30.166Z,21.5
2019-03-18T03:23:19.936Z,21.5
2019-03-18T03:24:10.271Z,21.5
2019-03-18T03:25:00.066Z,21.5
2019-03-18T03:25:50.374Z,21.5
2019-03-18T03:26:40.601Z,21.5
2019-03-18T03:27:30.538Z,21.5
2019-03-18T03:28:20.579Z,21.5
2019-03-18T03:29:10.436Z,21.5
2019-03-18T03:30:01.124Z,21.5
2019-03-18T03:30:50.814Z,21.5
2019-03-18T03:31:40.596Z,21.5
2019-03-18T03:32:30.881Z,21.5
2019-03-18T03:33:21.026Z,21.5
2019-03-18T03:34:14.947Z,21.5
2019-03-18T03:35:02.181Z,21.5
2019-03-18T03:35:50.844Z,21.5
2019-03-18T03:36:40.904Z,21.5
2019-03-18T03:37:30.951Z,21.5
2019-03-18T03:38:21.292Z,21.5
2019-03-18T03:39:11.073Z,21.5
2019-03-18T03:40:01.709Z,21.5
2019-03-18T03:40:51.502Z,21.5
2019-03-18T03:41:41.554Z,21.5
2019-03-18T03:42:31.335Z,21.5
2019-03-18T03:43:21.645Z,21.5
2019-03-18T03:44:11.720Z,21.5
2019-03-18T03:45:01.768Z,21.6
2019-03-18T03:45:51.847Z,21.5
2019-03-18T03:46:44.767Z,21.5
2019-03-18T03:47:31.956Z,21.5
2019-03-18T03:48:22.051Z,21.5
2019-03-18T03:49:11.866Z,21.5
2019-03-18T03:50:02.164Z,21.6
2019-03-18T03:50:51.652Z,21.5
2019-03-18T03:51:41.986Z,21.5
2019-03-18T03:52:32.328Z,21.6
2019-03-18T03:53:22.374Z,21.6
2019-03-18T03:54:12.173Z,21.5
2019-03-18T03:55:02.583Z,21.5
2019-03-18T03:55:52.562Z,21.5
2019-03-18T03:56:42.629Z,21.5
2019-03-18T03:57:32.680Z,21.6
2019-03-18T03:58:22.756Z,21.5
2019-03-18T03:59:12.815Z,21.6
2019-03-18T04:00:02.948Z,21.6
2019-03-18T04:00:52.650Z,21.6
2019-03-18T04:01:42.423Z,21.6
2019-03-18T04:02:33.055Z,21.6
2019-03-18T04:03:39.547Z,21.6
2019-03-18T04:04:13.241Z,21.5
2019-03-18T04:05:02.983Z,21.6
2019-03-18T04:05:53.133Z,21.5
2019-03-18T04:06:43.348Z,21.5
2019-03-18T04:07:33.389Z,21.5
2019-03-18T04:08:23.495Z,21.6
2019-03-18T04:09:13.243Z,21.6
2019-03-18T04:10:03.328Z,21.6
2019-03-18T04:10:53.364Z,21.6
2019-03-18T04:11:43.691Z,21.6
2019-03-18T04:12:33.765Z,21.6
2019-03-18T04:13:23.547Z,21.6
2019-03-18T04:14:13.893Z,21.6
2019-03-18T04:15:03.671Z,21.6
2019-03-18T04:15:54.011Z,21.6
2019-03-18T04:17:03.041Z,21.6
2019-03-18T04:17:34.111Z,21.6
2019-03-18T04:18:24.167Z,21.6
2019-03-18T04:19:14.251Z,21.6
2019-03-18T04:20:04.048Z,21.6
2019-03-18T04:20:54.197Z,21.6
2019-03-18T04:21:44.416Z,21.6
2019-03-18T04:22:34.476Z,21.6
2019-03-18T04:23:24.567Z,21.6
2019-03-18T04:24:14.316Z,21.6
2019-03-18T04:25:19.325Z,21.6
2019-03-18T04:25:54.722Z,21.6
2019-03-18T04:26:44.792Z,21.6
2019-03-18T04:27:34.828Z,21.6
2019-03-18T04:28:24.904Z,21.6
2019-03-18T04:29:14.969Z,21.6
2019-03-18T04:30:05.028Z,21.6
2019-03-18T04:30:55.079Z,21.6
2019-03-18T04:31:45.137Z,21.6
2019-03-18T04:32:35.202Z,21.6
2019-03-18T04:33:25.257Z,21.6
2019-03-18T04:34:15.317Z,21.6
2019-03-18T04:35:05.387Z,21.6
2019-03-18T04:35:55.438Z,21.6
2019-03-18T04:36:45.510Z,21.6
2019-03-18T04:37:35.563Z,21.6
2019-03-18T04:38:25.630Z,21.6
2019-03-18T04:39:15.411Z,21.6
2019-03-18T04:40:05.736Z,21.6
2019-03-18T04:40:55.802Z,21.6
2019-03-18T04:41:45.578Z,21.6
2019-03-18T04:42:35.916Z,21.6
2019-03-18T04:43:25.696Z,21.6
2019-03-18T04:44:16.031Z,21.6
2019-03-18T04:45:06.094Z,21.6
2019-03-18T04:45:56.154Z,21.6
2019-03-18T04:46:46.209Z,21.6
2019-03-18T04:47:36.276Z,21.5
2019-03-18T04:48:26.336Z,21.6
2019-03-18T04:49:16.411Z,21.6
2019-03-18T04:50:06.206Z,21.6
2019-03-18T04:50:56.518Z,21.6
2019-03-18T04:51:46.626Z,21.6
2019-03-18T04:52:36.098Z,21.6
2019-03-18T04:53:26.423Z,21.6
2019-03-18T04:54:16.473Z,21.6
2019-03-18T04:55:06.828Z,21.6
2019-03-18T04:55:56.881Z,21.6
2019-03-18T04:56:46.706Z,21.6
2019-03-18T04:57:36.717Z,21.6
2019-03-18T04:58:27.055Z,21.6
2019-03-18T04:59:16.845Z,21.6
2019-03-18T05:00:07.181Z,21.6
2019-03-18T05:00:57.233Z,21.6
2019-03-18T05:01:47.024Z,21.6
2019-03-18T05:02:37.358Z,21.6
2019-03-18T05:03:27.418Z,21.6
2019-03-18T05:04:17.485Z,21.6
2019-03-18T05:05:07.527Z,21.6
2019-03-18T05:05:57.585Z,21.6
2019-03-18T05:06:47.654Z,21.6
2019-03-18T05:07:37.706Z,21.6
2019-03-18T05:08:27.505Z,21.6
2019-03-18T05:09:17.834Z,21.6
2019-03-18T05:10:07.897Z,21.6
2019-03-18T05:10:57.675Z,21.6
2019-03-18T05:11:48.012Z,21.6
2019-03-18T05:12:38.090Z,21.6
2019-03-18T05:13:28.137Z,21.6
2019-03-18T05:14:17.922Z,21.6
2019-03-18T05:15:08.256Z,21.6
2019-03-18T05:15:58.306Z,21.6
2019-03-18T05:16:48.372Z,21.6
2019-03-18T05:17:38.439Z,21.6
2019-03-18T05:18:28.489Z,21.6
2019-03-18T05:19:18.592Z,21.6
2019-03-18T05:20:08.630Z,21.6
2019-03-18T05:20:58.673Z,21.6
2019-03-18T05:21:48.729Z,21.6
2019-03-18T05:22:38.807Z,21.6
2019-03-18T05:23:28.564Z,21.6
2019-03-18T05:24:18.914Z,21.6
2019-03-18T05:25:08.971Z,21.6
2019-03-18T05:25:59.024Z,21.6
2019-03-18T05:26:49.091Z,21.6
2019-03-18T05:27:39.158Z,21.6
2019-03-18T05:28:29.211Z,21.6
2019-03-18T05:29:19.012Z,21.6
2019-03-18T05:30:09.054Z,21.6
2019-03-18T05:30:59.392Z,21.6
2019-03-18T05:31:49.477Z,21.6
2019-03-18T05:32:39.515Z,21.6
2019-03-18T05:33:29.574Z,21.6
2019-03-18T05:34:19.633Z,21.6
2019-03-18T05:35:09.700Z,21.6
2019-03-18T05:35:59.758Z,21.6
2019-03-18T05:36:49.823Z,21.6
2019-03-18T05:37:39.598Z,21.7
2019-03-18T05:38:29.654Z,21.7
2019-03-18T05:39:19.718Z,21.6
2019-03-18T05:40:09.789Z,21.6
2019-03-18T05:41:00.108Z,21.6
2019-03-18T05:41:49.904Z,21.7
2019-03-18T05:42:40.227Z,21.7
2019-03-18T05:43:30.286Z,21.7
2019-03-18T05:44:20.378Z,21.7
2019-03-18T05:45:10.441Z,21.7
2019-03-18T05:46:00.476Z,21.6
2019-03-18T05:46:50.547Z,21.7
2019-03-18T05:47:41.057Z,21.7
2019-03-18T05:48:30.652Z,21.7
2019-03-18T05:49:20.709Z,21.7
2019-03-18T05:50:10.771Z,21.7
2019-03-18T05:51:00.834Z,21.7
2019-03-18T05:51:50.889Z,21.7
2019-03-18T05:52:40.952Z,21.7
2019-03-18T05:53:31.006Z,21.7
2019-03-18T05:54:21.064Z,21.7
2019-03-18T05:55:11.161Z,21.7
2019-03-18T05:56:00.941Z,21.7
2019-03-18T05:56:51.263Z,21.7
2019-03-18T05:57:41.315Z,21.7
2019-03-18T05:58:31.086Z,21.7
2019-03-18T05:59:21.441Z,21.7
2019-03-18T06:00:11.215Z,21.7
2019-03-18T06:01:01.278Z,21.7
2019-03-18T06:01:51.610Z,21.7
2019-03-18T06:02:41.726Z,21.7
2019-03-18T06:03:31.456Z,21.7
2019-03-18T06:05:28.933Z,21.8
2019-03-18T06:06:19.003Z,21.8
2019-03-18T06:07:08.785Z,21.8
2019-03-18T06:07:59.193Z,21.8
2019-03-18T06:08:49.180Z,21.8
2019-03-18T06:09:38.962Z,21.7
2019-03-18T06:10:29.018Z,21.8
2019-03-18T06:11:19.377Z,21.8
2019-03-18T06:12:09.417Z,21.7
2019-03-18T06:12:59.462Z,21.8
2019-03-18T06:13:49.532Z,21.8
2019-03-18T06:14:39.590Z,21.8
2019-03-18T06:15:29.650Z,21.8
2019-03-18T06:16:19.710Z,21.8
2019-03-18T06:17:09.772Z,21.8
2019-03-18T06:17:59.878Z,21.8
2019-03-18T06:18:49.617Z,21.8
2019-03-18T06:19:39.677Z,21.8
2019-03-18T06:20:30.029Z,21.8
2019-03-18T06:21:20.073Z,21.8
2019-03-18T06:22:09.862Z,21.8
2019-03-18T06:23:00.190Z,21.8
2019-03-18T06:23:50.257Z,21.8
2019-03-18T06:24:40.319Z,21.8
2019-03-18T06:25:30.383Z,21.8
2019-03-18T06:26:20.437Z,21.8
2019-03-18T06:27:10.497Z,21.8
2019-03-18T06:28:00.557Z,21.8
2019-03-18T06:28:50.622Z,21.8
2019-03-18T06:29:40.399Z,21.8
2019-03-18T06:30:30.735Z,21.8
2019-03-18T06:31:20.804Z,21.8
2019-03-18T06:32:10.593Z,21.8
2019-03-18T06:33:00.652Z,21.8
2019-03-18T06:33:50.977Z,21.8
2019-03-18T06:34:41.036Z,21.8
2019-03-18T06:35:31.092Z,21.8
2019-03-18T06:36:20.887Z,21.8
2019-03-18T06:37:11.213Z,21.8
2019-03-18T06:38:01.004Z,21.8
2019-03-18T06:38:51.342Z,21.8
2019-03-18T06:39:41.399Z,21.8
2019-03-18T06:40:31.453Z,21.8
2019-03-18T06:41:21.511Z,21.8
2019-03-18T06:42:11.576Z,21.8
2019-03-18T06:43:01.378Z,21.8
2019-03-18T06:43:51.691Z,21.8
2019-03-18T06:44:41.478Z,21.8
2019-03-18T06:45:31.542Z,21.8
2019-03-18T06:46:21.593Z,21.8
2019-03-18T06:47:11.666Z,21.8
2019-03-18T06:48:09.033Z,21.8
2019-03-18T06:48:52.066Z,21.8
2019-03-18T06:49:42.118Z,21.8
2019-03-18T06:50:31.910Z,21.8
2019-03-18T06:51:22.245Z,21.8
2019-03-18T06:52:12.306Z,21.8
2019-03-18T06:53:02.363Z,21.9
2019-03-18T06:53:52.421Z,21.8
2019-03-18T06:54:42.490Z,21.9
2019-03-18T06:55:32.538Z,21.8
2019-03-18T06:56:22.623Z,21.8
2019-03-18T06:57:12.398Z,21.8
2019-03-18T06:58:02.714Z,21.8
2019-03-18T06:58:52.516Z,21.8
2019-03-18T06:59:42.852Z,21.8
2019-03-18T07:00:32.898Z,21.9
2019-03-18T07:01:22.965Z,21.9
2019-03-18T07:02:12.744Z,21.9
2019-03-18T07:03:02.815Z,21.8
2019-03-18T10:06:28.745Z,22.1
2019-03-18T10:07:19.034Z,22
2019-03-18T10:08:08.867Z,22
2019-03-18T10:09:13.591Z,22
2019-03-18T10:09:48.991Z,22
2019-03-18T10:10:39.047Z,22
2019-03-18T10:11:29.114Z,22
2019-03-18T10:12:19.164Z,22.1
2019-03-18T10:13:09.224Z,22
2019-03-18T10:13:59.284Z,22
2019-03-18T10:14:49.584Z,22
2019-03-18T10:15:39.404Z,22
2019-03-18T10:16:29.201Z,22
2019-03-18T10:17:19.529Z,22
2019-03-18T10:18:09.585Z,22.1
2019-03-18T10:18:59.364Z,22
2019-03-18T10:19:49.736Z,22
2019-03-18T10:20:39.761Z,22.1
2019-03-18T10:21:29.566Z,22
2019-03-18T10:22:19.884Z,22
2019-03-18T10:23:09.951Z,22
2019-03-18T10:24:00.021Z,22
2019-03-18T10:24:50.067Z,22
2019-03-18T10:25:40.124Z,22
2019-03-18T10:26:30.188Z,22
2019-03-18T10:27:20.246Z,22
2019-03-18T10:28:10.309Z,22
2019-03-18T10:29:00.374Z,22
2019-03-18T10:29:50.436Z,22
2019-03-18T10:30:40.229Z,22
2019-03-18T10:31:30.551Z,22
2019-03-18T10:32:20.605Z,22
2019-03-18T10:33:10.675Z,22
2019-03-18T10:34:00.736Z,22
2019-03-18T10:34:50.802Z,22
2019-03-18T10:35:40.853Z,22
2019-03-18T10:36:30.921Z,22
2019-03-18T10:37:20.983Z,22.1
2019-03-18T10:38:11.035Z,22
2019-03-18T10:39:01.090Z,22
2019-03-18T10:39:51.150Z,22
2019-03-18T10:40:41.208Z,22
2019-03-18T10:41:30.996Z,22.1
2019-03-18T10:42:21.071Z,22.1
2019-03-18T10:43:11.395Z,22
2019-03-18T10:44:01.451Z,22
2019-03-18T10:44:51.512Z,22.1
2019-03-18T10:45:41.567Z,22
2019-03-18T10:46:31.633Z,22
2019-03-18T10:47:21.688Z,22
2019-03-18T10:48:11.757Z,22
2019-03-18T10:49:01.810Z,22
2019-03-18T10:49:51.594Z,22
2019-03-18T10:50:41.938Z,22
2019-03-18T10:51:33.045Z,22
2019-03-18T10:52:22.108Z,22
2019-03-18T10:53:12.115Z,22.1
2019-03-18T10:54:02.211Z,22.1
2019-03-18T10:54:52.342Z,22.1
2019-03-18T10:55:42.289Z,22.1
2019-03-18T10:56:32.074Z,22.1
2019-03-18T10:57:22.419Z,22
2019-03-18T10:58:12.477Z,22
2019-03-18T10:59:02.278Z,22
2019-03-18T10:59:52.599Z,22
2019-03-18T11:00:42.440Z,22
2019-03-18T11:01:32.722Z,22.1
2019-03-18T11:02:22.771Z,22
2019-03-18T11:03:12.842Z,22
2019-03-18T11:04:02.896Z,22
2019-03-18T11:04:52.959Z,22.1
2019-03-18T11:05:42.747Z,22.1
2019-03-18T11:06:33.085Z,22
2019-03-18T11:07:23.143Z,22
2019-03-18T11:08:13.197Z,22
2019-03-18T11:09:03.263Z,22.1
2019-03-18T11:09:53.326Z,22.1
2019-03-18T11:10:43.391Z,22.1
2019-03-18T11:11:33.165Z,22
2019-03-18T11:12:23.504Z,22
2019-03-18T11:13:13.561Z,22.1
2019-03-18T11:14:03.359Z,22
2019-03-18T11:14:53.701Z,22
2019-03-18T11:15:43.468Z,22
2019-03-18T11:16:33.804Z,22
2019-03-18T11:17:23.594Z,22
2019-03-18T11:18:13.932Z,22
2019-03-18T11:19:03.980Z,22
2019-03-18T11:19:59.734Z,22
2019-03-18T11:20:43.825Z,22
2019-03-18T11:21:34.166Z,22.1
2019-03-18T11:22:23.966Z,22
2019-03-18T11:23:14.283Z,22.1
2019-03-18T11:24:04.355Z,22.1
2019-03-18T11:24:54.412Z,22.1
2019-03-18T11:25:44.465Z,22
2019-03-18T11:26:34.525Z,22.1
2019-03-18T11:27:24.585Z,22
2019-03-18T11:28:14.659Z,22
2019-03-18T11:29:07.011Z,22
2019-03-18T11:29:54.773Z,22.1
2019-03-18T11:30:44.834Z,22
2019-03-18T11:31:34.890Z,22
2019-03-18T11:32:24.952Z,22
2019-03-18T11:33:15.002Z,22
2019-03-18T11:34:05.072Z,22
2019-03-18T11:34:55.130Z,22
2019-03-18T11:35:45.195Z,22
2019-03-18T11:36:35.253Z,22
2019-03-18T11:37:25.040Z,22
2019-03-18T11:38:15.101Z,22
2019-03-18T11:39:05.437Z,22
2019-03-18T11:39:55.217Z,22
2019-03-18T11:40:45.557Z,22
2019-03-18T11:41:38.188Z,22
2019-03-18T11:42:25.671Z,22
2019-03-18T11:43:15.729Z,22
2019-03-18T11:44:05.521Z,22
2019-03-18T11:44:55.850Z,22
2019-03-18T11:45:45.649Z,22
2019-03-18T11:46:35.435Z,22
2019-03-18T11:47:26.039Z,22
2019-03-18T11:48:16.107Z,22
2019-03-18T11:49:05.882Z,22
2019-03-18T11:49:56.211Z,22
2019-03-18T11:50:46.271Z,22.1
2019-03-18T11:51:36.338Z,22
2019-03-18T11:52:26.419Z,22
2019-03-18T11:53:16.472Z,22
2019-03-18T11:54:06.535Z,22
2019-03-18T11:54:56.579Z,22.1
2019-03-18T11:55:46.629Z,22
2019-03-18T11:56:36.426Z,22
2019-03-18T11:57:26.758Z,22
2019-03-18T11:58:16.830Z,22
2019-03-18T11:59:06.884Z,22
2019-03-18T11:59:56.956Z,22
2019-03-18T12:00:46.999Z,22
2019-03-18T12:01:37.064Z,22.1
2019-03-18T12:02:28.977Z,22
2019-03-18T12:03:17.180Z,22
2019-03-18T12:04:07.239Z,22
2019-03-18T12:06:28.651Z,22.1
2019-03-18T12:07:18.451Z,22.1
2019-03-18T12:08:08.823Z,22
2019-03-18T12:08:58.838Z,22
2019-03-18T12:09:48.890Z,22
2019-03-18T12:10:38.944Z,22
2019-03-18T12:11:29.016Z,22
2019-03-18T12:12:19.075Z,22.1
2019-03-18T12:13:09.127Z,22
2019-03-18T12:13:59.199Z,22
2019-03-18T12:14:49.332Z,22
2019-03-18T12:15:39.328Z,22
2019-03-18T12:16:29.100Z,22.1
2019-03-18T12:17:19.172Z,22
2019-03-18T12:18:09.227Z,22
2019-03-18T12:18:59.553Z,22
2019-03-18T12:19:49.621Z,22
2019-03-18T12:20:39.687Z,22
2019-03-18T12:21:29.457Z,22
2019-03-18T12:22:19.794Z,22
2019-03-18T12:23:09.859Z,22
2019-03-18T12:23:59.658Z,22
2019-03-18T12:24:49.981Z,22
2019-03-18T12:25:40.037Z,22
2019-03-18T12:26:29.821Z,22
2019-03-18T12:27:19.877Z,22
2019-03-18T12:28:09.949Z,22.1
2019-03-18T12:29:00.027Z,22.1
2019-03-18T12:29:50.341Z,22
2019-03-18T12:30:40.129Z,22.1
2019-03-18T12:31:30.467Z,22
2019-03-18T12:32:20.520Z,22
2019-03-18T12:33:10.604Z,22
2019-03-18T12:34:00.377Z,22
2019-03-18T12:34:50.443Z,22
2019-03-18T12:35:40.761Z,22
2019-03-18T12:36:30.836Z,22.1
2019-03-18T12:37:20.614Z,22
2019-03-18T12:38:10.949Z,22
2019-03-18T12:39:01.016Z,22
2019-03-18T12:39:51.081Z,22
2019-03-18T12:40:41.136Z,22
2019-03-18T12:41:31.206Z,22
2019-03-18T12:42:21.263Z,22
2019-03-18T12:43:11.315Z,22.1
2019-03-18T12:44:01.371Z,22
2019-03-18T12:44:51.439Z,22
2019-03-18T12:45:41.491Z,22
2019-03-18T12:46:31.286Z,22.1
2019-03-18T12:47:21.349Z,22
2019-03-18T12:48:11.685Z,22
2019-03-18T12:49:01.740Z,22
2019-03-18T12:49:51.536Z,22
2019-03-18T12:50:57.533Z,22
2019-03-18T12:51:31.948Z,22
2019-03-18T12:52:21.978Z,22.1
2019-03-18T12:53:12.043Z,22.1
2019-03-18T12:54:02.101Z,22
2019-03-18T12:54:52.155Z,22
2019-03-18T12:55:41.958Z,22
2019-03-18T12:56:32.283Z,22
2019-03-18T12:57:22.071Z,22
2019-03-18T12:58:12.408Z,22
2019-03-18T12:59:02.203Z,22
2019-03-18T12:59:52.527Z,22
2019-03-18T13:00:42.587Z,22
2019-03-18T13:01:32.718Z,22.1
2019-03-18T13:02:22.773Z,22
2019-03-18T13:03:12.775Z,22
2019-03-18T13:04:02.827Z,22
2019-03-18T13:04:52.899Z,22
2019-03-18T13:05:42.755Z,22
2019-03-18T13:06:34.584Z,22.1
2019-03-18T13:07:23.082Z,22
2019-03-18T13:08:13.135Z,22
2019-03-18T13:09:03.198Z,22
2019-03-18T13:09:53.263Z,22.1
2019-03-18T13:10:43.312Z,22
2019-03-18T13:11:33.382Z,22.1
2019-03-18T13:12:23.439Z,22
2019-03-18T13:13:13.504Z,21.9
2019-03-18T13:14:03.562Z,22.1
2019-03-18T13:14:53.620Z,22
2019-03-18T13:15:43.805Z,22
2019-03-18T13:16:33.744Z,22.1
2019-03-18T13:17:23.801Z,22.1
2019-03-18T13:18:13.870Z,22
2019-03-18T13:19:03.924Z,22.1
2019-03-18T13:19:53.982Z,22
2019-03-18T13:20:44.060Z,22.1
2019-03-18T13:21:34.114Z,22
2019-03-18T13:22:24.166Z,22
2019-03-18T13:23:13.957Z,22
2019-03-18T13:24:04.012Z,22
2019-03-18T13:24:54.351Z,22.1
2019-03-18T13:25:44.413Z,22
2019-03-18T13:26:34.219Z,22
2019-03-18T13:27:24.261Z,22.1
2019-03-18T13:28:14.333Z,22
2019-03-18T13:29:04.668Z,22.1
2019-03-18T13:29:54.724Z,22.1
2019-03-18T13:30:44.786Z,22
2019-03-18T13:31:34.848Z,22
2019-03-18T13:32:24.909Z,22
2019-03-18T13:33:14.953Z,22.1
2019-03-18T13:34:04.743Z,22.1
2019-03-18T13:34:55.086Z,22.1
2019-03-18T13:35:45.146Z,22
2019-03-18T13:36:35.206Z,22
2019-03-18T13:37:25.269Z,22.1
2019-03-18T13:38:15.334Z,22.1
2019-03-18T13:39:05.386Z,22
2019-03-18T13:39:55.445Z,22
2019-03-18T13:40:46.748Z,22.1
2019-03-18T13:41:35.581Z,22.1
2019-03-18T13:42:25.631Z,22
2019-03-18T13:43:15.410Z,22
2019-03-18T13:44:05.740Z,22
2019-03-18T13:44:55.800Z,22.1
2019-03-18T13:45:56.437Z,22
2019-03-18T13:46:35.938Z,22
2019-03-18T13:47:25.989Z,22.1
2019-03-18T13:48:16.073Z,22
2019-03-18T13:49:06.112Z,22.1
2019-03-18T13:49:56.170Z,22
2019-03-18T13:50:45.953Z,22
2019-03-18T13:51:36.288Z,22
2019-03-18T13:52:26.352Z,22
2019-03-18T13:53:15.857Z,22
2019-03-18T13:54:06.195Z,22
2019-03-18T13:54:56.533Z,22
2019-03-18T13:55:46.598Z,22
2019-03-18T13:56:36.658Z,22
2019-03-18T13:57:26.723Z,22.1
2019-03-18T13:58:16.834Z,22
2019-03-18T13:59:06.845Z,22
2019-03-18T13:59:56.898Z,22
2019-03-18T14:00:46.960Z,22.1
2019-03-18T14:01:37.075Z,22.1
2019-03-18T14:02:27.082Z,22.1
2019-03-18T14:03:17.138Z,22.1
2019-03-18T14:04:06.932Z,22
2019-03-18T14:04:57.267Z,22
2019-03-18T14:07:28.581Z,22.1
2019-03-18T14:08:18.361Z,22.1
2019-03-18T14:09:08.701Z,22
2019-03-18T14:09:58.758Z,22.1
2019-03-18T14:10:48.823Z,22
2019-03-18T14:11:38.870Z,22.1
2019-03-18T14:12:28.930Z,22
2019-03-18T14:13:18.994Z,22.1
2019-03-18T14:14:09.058Z,22
2019-03-18T14:14:59.117Z,22.1
2019-03-18T14:15:48.908Z,22.1
2019-03-18T14:16:38.969Z,22.1
2019-03-18T14:17:29.020Z,22
2019-03-18T14:18:19.365Z,22.1
2019-03-18T14:19:09.142Z,22.1
2019-03-18T14:20:01.944Z,22.1
2019-03-18T14:20:49.271Z,22.1
2019-03-18T14:21:39.605Z,22
2019-03-18T14:22:29.667Z,22.1
2019-03-18T14:23:19.722Z,22.1
2019-03-18T14:24:09.784Z,22.1
2019-03-18T14:24:59.844Z,22.1
2019-03-18T14:25:49.632Z,22.1
2019-03-18T14:26:39.970Z,22.1
2019-03-18T14:27:30.027Z,22
2019-03-18T14:28:19.537Z,22.1